Terminal Aerodrome Forecast
Issued by NWS

Home | Current Version | Previous Version | Text Only | Print | Product List | Glossary On
Versions: 1 2 3 4 5 6 7 8 9 10 11 12
000
FTAK31 PANC 221733
TAFATK
TAF
PATK 221733Z 2218/2318 20005KT P6SM SCT050 BKN070
     FM230200 19010G18KT P6SM BKN100
     FM230700 18007KT P6SM SCT080 BKN120=

USA.gov is the U.S. government's official web portal to all federal, state and local government web resources and services.